Latest Weather Observations for Applethorpe

IDQ60801

Issued at 12:32 pm EST Saturday 10 December 2016 (issued every 30 minutes, with the page automatically refreshed every 10 minutes)

About weather observations | Map of weather stations | Latest weather observations for QLD | Other Formats
Station Details ID: 041175 Name: APPLETHORPE Lat: -28.62 Lon: 151.95 Height: 871.6 m
Data from the previous 72 hours. | See also: Recent months at Applethorpe
Date/Time
EST
Temp
°C
App
Temp
°C
Dew
Point
°C
Rel
Hum
%
Delta-T
°C
Wind Press
QNH
hPa
Press
MSL
hPa
Rain since
9am
mm
Dir  Spd
km/h
Gust
km/h
Spd
kts
Gust
kts
10/12:00pm 21.2 20.0 11.7 54 5.5 ENE 9 20 5 11 1023.1 1018.8 0.0
10/11:30am 20.3 19.0 11.4 56 5.1 E 9 19 5 10 1023.4 1019.0 0.0
10/11:00am 21.4 19.9 11.9 54 5.5 ENE 11 19 6 10 1023.7 1019.4 0.0
10/10:30am 19.3 17.5 10.8 58 4.8 E 11 24 6 13 1023.7 1019.4 0.0
10/10:00am 19.1 17.5 11.4 61 4.4 ESE 11 20 6 11 1023.7 1019.4 0.0
10/09:30am 18.1 16.7 10.8 62 4.1 ESE 9 17 5 9 1023.9 1019.6 0.0
10/09:00am 18.1 16.3 11.0 63 4.0 ESE 11 20 6 11 1023.9 1019.6 0.0
10/08:30am 16.4 14.3 11.0 70 3.0 ESE 13 24 7 13 1023.6 1019.3 0.0
10/08:00am 15.6 14.5 11.9 78 2.1 E 9 20 5 11 1023.5 1019.2 0.0
10/07:30am 15.5 14.4 11.8 78 2.1 ESE 9 19 5 10 1023.1 1018.8 0.0
10/07:00am 15.5 14.7 11.6 77 2.2 E 7 17 4 9 1023.0 1018.7 0.0
10/06:30am 14.9 13.8 11.9 82 1.7 E 9 22 5 12 1022.4 1018.0 0.0
10/06:00am 14.8 14.0 11.6 81 1.8 ESE 7 19 4 10 1021.8 1017.5 0.0
10/05:30am 14.3 13.7 11.6 84 1.5 E 6 13 3 7 1021.5 1017.2 0.0
10/05:00am 14.0 13.3 11.9 87 1.2 E 7 19 4 10 1020.9 1016.5 0.0
10/04:30am 13.9 12.8 12.1 89 1.0 E 9 19 5 10 1020.4 1016.1 0.0
10/04:00am 14.1 14.1 12.5 90 0.9 ENE 4 11 2 6 1020.0 1015.6 0.0
10/03:30am 14.1 14.2 12.7 91 0.8 ENE 4 9 2 5 1019.8 1015.4 0.0
10/03:00am 14.3 14.0 12.7 90 0.9 E 6 15 3 8 1019.4 1015.1 0.0
10/02:30am 13.9 13.7 12.9 94 0.6 ENE 6 9 3 5 1019.1 1014.7 0.0
10/02:00am 13.9 13.6 12.7 92 0.7 E 6 11 3 6 1019.1 1014.7 0.0
10/01:30am 13.9 13.7 12.9 94 0.6 E 6 11 3 6 1018.9 1014.5 0.0
10/01:00am 13.7 13.8 12.8 94 0.5 ESE 4 9 2 5 1019.0 1014.6 0.0
10/12:30am 13.9 14.1 12.9 94 0.6 E 4 11 2 6 1019.0 1014.6 0.0
10/12:00am 13.9 13.5 12.5 91 0.8 ESE 6 11 3 6 1019.3 1015.0 0.0
 
Date/Time
EST
Temp
°C
App
Temp
°C
Dew
Point
°C
Rel
Hum
%
Delta-T
°C
Wind Press
QNH
hPa
Press
MSL
hPa
Rain since
9am
mm
Dir  Spd
km/h
Gust
km/h
Spd
kts
Gust
kts
09/11:30pm 13.6 13.6 12.4 92 0.7 E 4 7 2 4 1019.4 1015.1 0.0
09/11:00pm 13.8 13.4 12.4 91 0.8 NE 6 13 3 7 1019.5 1015.2 0.0
09/10:30pm 13.6 13.7 12.7 94 0.5 ENE 4 7 2 4 1019.2 1014.8 0.0
09/10:00pm 11.7 11.6 9.6 87 1.1 CALM 0 0 0 0 1019.0 1014.6 0.0
09/09:30pm 12.4 12.1 10.0 85 1.3 NNE 2 4 1 2 1018.6 1014.2 0.0
09/09:00pm 11.9 12.1 10.4 90 0.8 CALM 0 2 0 1 1018.1 1013.7 0.0
09/08:30pm 12.4 12.5 10.0 85 1.3 CALM 0 0 0 0 1018.0 1013.6 0.0
09/08:00pm 13.4 13.5 10.1 80 1.8 CALM 0 0 0 0 1017.5 1013.1 0.0
09/07:30pm 14.4 14.5 10.2 76 2.3 CALM 0 0 0 0 1017.4 1013.0 0.0
09/07:00pm 16.0 15.7 8.5 61 4.0 CALM 0 2 0 1 1016.9 1012.5 0.0
09/06:30pm 19.2 17.5 5.8 41 6.9 SW 4 7 2 4 1016.6 1012.2 0.0
09/06:00pm 21.0 18.0 3.9 32 8.6 SW 9 17 5 9 1016.0 1011.5 0.0
09/05:30pm 21.9 18.7 3.0 29 9.4 SW 9 17 5 9 1015.5 1011.1 0.0
09/05:00pm 22.2 17.7 2.3 27 9.8 SW 15 26 8 14 1015.0 1010.5 0.0
09/04:30pm 22.4 17.6 2.7 27 9.8 SW 17 28 9 15 1014.3 1009.9 0.0
09/04:00pm 22.7 18.8 5.3 32 9.1 SW 15 24 8 13 1014.1 1009.6 0.0
09/03:30pm 22.1 17.5 3.7 30 9.3 SW 17 33 9 18 1014.0 1009.5 0.0
09/03:00pm 22.8 18.5 6.8 35 8.6 SW 19 30 10 16 1013.9 1009.4 0.0
09/02:30pm 22.9 19.3 8.4 39 8.0 SW 17 30 9 16 1013.7 1009.2 0.0
09/02:00pm 22.8 18.9 7.0 36 8.5 WSW 17 30 9 16 1013.8 1009.3 0.0
09/01:30pm 22.4 17.9 4.2 30 9.3 SW 17 35 9 19 1013.8 1009.3 0.0
09/01:00pm 21.7 17.1 6.4 37 8.1 W 20 32 11 17 1013.9 1009.4 0.0
09/12:30pm 21.2 18.9 11.7 54 5.5 WSW 15 24 8 13 1014.1 1009.6 0.0
09/12:00pm 20.9 17.4 12.2 57 5.1 SW 22 35 12 19 1014.1 1009.6 0.0
09/11:30am 19.9 17.1 13.3 65 3.9 WSW 20 35 11 19 1014.3 1009.9 0.0
09/11:00am 19.7 18.5 15.1 75 2.8 WSW 15 28 8 15 1014.5 1010.1 0.0
09/10:30am 18.6 16.6 15.0 79 2.2 W 19 26 10 14 1014.5 1010.1 0.0
09/10:00am 17.8 16.7 15.3 85 1.5 WSW 15 26 8 14 1014.4 1010.0 0.0
09/09:30am 16.5 15.6 15.8 96 0.4 W 15 22 8 12 1014.3 1009.9 0.0
09/09:00am 17.2 15.7 16.2 94 0.6 W 19 32 10 17 1013.9 1009.4 4.6
09/08:30am 18.0 18.3 17.0 94 0.6 W 11 24 6 13 1013.3 1008.9 4.4
09/08:00am 18.1 17.8 16.5 90 1.0 W 13 24 7 13 1013.2 1008.8 4.2
09/07:30am 18.0 17.2 16.2 89 1.1 W 15 28 8 15 1013.2 1008.8 4.2
09/07:00am 17.3 16.5 16.2 93 0.7 W 15 26 8 14 1013.0 1008.5 4.2
09/06:30am 17.4 16.9 15.9 91 0.9 W 13 22 7 12 1013.0 1008.5 4.2
09/06:00am 17.3 16.7 15.7 90 1.0 W 13 24 7 13 1012.3 1007.8 4.2
09/05:30am 17.0 16.9 15.9 93 0.7 W 11 28 6 15 1012.0 1007.5 4.2
09/05:00am 17.0 16.5 16.0 94 0.6 W 13 24 7 13 1011.9 1007.4 4.2
09/04:30am 17.2 16.8 16.2 94 0.6 W 13 24 7 13 1011.6 1007.1 4.2
09/04:00am 17.4 17.5 16.4 94 0.6 W 11 24 6 13 1011.5 1007.0 4.2
09/03:30am 17.4 17.1 16.4 94 0.6 W 13 24 7 13 1011.4 1006.9 4.2
09/03:00am 17.7 18.4 17.1 96 0.4 WSW 9 19 5 10 1011.6 1007.1 4.0
09/02:30am 18.0 17.8 17.5 97 0.3 WSW 15 28 8 15 1011.5 1007.0 4.0
09/02:00am 18.3 18.9 17.7 96 0.4 W 11 17 6 9 1011.5 1007.0 2.2
09/01:30am 18.1 18.2 17.5 96 0.4 WNW 13 24 7 13 1011.8 1007.3 2.0
09/01:00am 18.2 18.6 17.2 94 0.6 WNW 11 20 6 11 1012.1 1007.7 1.6
09/12:30am 18.8 19.1 16.9 89 1.2 WNW 11 20 6 11 1012.5 1008.0 0.6
09/12:00am 19.0 19.6 16.8 87 1.4 WNW 9 20 5 11 1012.6 1008.1 0.2
 
Date/Time
EST
Temp
°C
App
Temp
°C
Dew
Point
°C
Rel
Hum
%
Delta-T
°C
Wind Press
QNH
hPa
Press
MSL
hPa
Rain since
9am
mm
Dir  Spd
km/h
Gust
km/h
Spd
kts
Gust
kts
08/11:30pm 19.3 19.5 16.8 85 1.6 WNW 11 30 6 16 1012.8 1008.3 0.2
08/11:00pm 20.3 19.9 16.3 78 2.5 WNW 13 26 7 14 1012.8 1008.3 0.0
08/10:30pm 21.0 20.5 16.0 73 3.1 WNW 13 33 7 18 1012.7 1008.2 0.0
08/10:00pm 21.4 21.7 16.1 72 3.3 WNW 9 20 5 11 1013.0 1008.5 0.0
08/09:30pm 22.7 23.2 14.9 61 4.8 WNW 6 15 3 8 1013.1 1008.7 0.0
08/09:00pm 23.0 23.4 14.7 59 5.1 NW 6 13 3 7 1012.7 1008.2 0.0
08/08:30pm 23.1 23.6 15.0 60 5.0 WNW 6 9 3 5 1012.6 1008.1 0.0
08/08:00pm 23.7 24.2 15.0 58 5.4 NW 6 17 3 9 1012.6 1008.1 0.0
08/07:30pm 23.6 23.3 15.4 60 5.1 W 11 17 6 9 1012.5 1008.0 0.0
08/07:00pm 23.4 23.4 16.3 64 4.5 W 11 20 6 11 1012.1 1007.7 0.0
08/06:30pm 24.6 25.1 15.5 57 5.7 WNW 7 19 4 10 1011.7 1007.2 0.0
08/06:00pm 24.9 24.5 15.3 55 6.0 NW 11 30 6 16 1011.4 1006.9 0.0
08/05:30pm 25.3 25.5 15.8 55 6.0 WNW 9 19 5 10 1010.7 1006.2 0.0
08/05:00pm 25.9 25.6 16.5 56 6.0 NW 13 30 7 16 1010.6 1006.1 0.0
08/04:30pm 25.4 24.2 17.0 59 5.4 N 19 35 10 19 1009.9 1005.3 0.0
08/04:00pm 26.9 25.9 15.7 50 7.1 NNW 15 33 8 18 1010.0 1005.4 0.0
08/03:30pm 26.0 24.7 15.9 53 6.4 N 17 28 9 15 1010.4 1005.9 0.0
08/03:00pm 26.4 25.2 16.2 53 6.5 N 17 26 9 14 1010.8 1006.3 0.0
08/02:30pm 27.1 27.1 17.1 54 6.5 NW 13 24 7 13 1011.6 1007.1 0.0
08/02:00pm 25.9 25.5 16.2 55 6.2 NNW 13 28 7 15 1012.1 1007.7 0.0
08/01:30pm 25.5 25.8 18.0 63 4.9 NNW 13 33 7 18 1012.5 1008.0 0.0
08/01:00pm 25.3 25.6 17.9 63 4.8 NNW 13 28 7 15 1013.0 1008.5 0.0
08/12:30pm 24.5 24.3 17.7 66 4.4 NNW 15 32 8 17 1013.6 1009.1 0.0
08/12:00pm 24.3 25.2 18.3 69 3.9 NNW 11 22 6 12 1014.0 1009.5 0.0
08/11:30am 23.0 24.0 18.6 76 2.9 NNW 11 24 6 13 1014.5 1010.1 0.0
08/11:00am 23.0 23.6 18.6 76 2.9 N 13 22 7 12 1015.3 1010.9 0.0
08/10:30am 23.1 23.0 18.8 77 2.8 N 17 28 9 15 1014.9 1010.4 0.0
08/10:00am 23.3 24.7 19.5 79 2.5 NNE 11 19 6 10 1014.5 1010.1 0.0
08/09:30am 22.1 23.5 19.5 85 1.7 NNE 11 19 6 10 1014.9 1010.4 0.0
08/09:00am 20.5 22.2 19.3 93 0.8 NNE 9 15 5 8 1015.3 1010.9 0.8
08/08:30am 20.0 22.2 19.1 95 0.6 NNE 6 9 3 5 1015.7 1011.3 0.8
08/08:00am 19.5 21.8 18.6 94 0.6 NNE 4 6 2 3 1016.3 1011.9 0.6
08/07:30am 18.8 21.6 17.9 94 0.6 CALM 0 2 0 1 1016.8 1012.4 0.2
08/07:00am 18.4 20.3 17.6 95 0.5 NE 4 6 2 3 1016.6 1012.2 0.2
08/06:30am 17.7 19.0 17.2 97 0.3 NE 6 9 3 5 1016.0 1011.5 0.2
08/06:00am 17.3 18.6 17.0 98 0.2 NE 6 9 3 5 1016.1 1011.6 0.2
08/05:30am 16.9 18.4 16.7 99 0.1 ENE 4 7 2 4 1015.8 1011.4 0.2
08/05:00am 16.8 17.9 16.5 98 0.2 ENE 6 9 3 5 1015.5 1011.1 0.2
08/04:30am 16.9 18.4 16.6 98 0.2 NE 4 7 2 4 1015.6 1011.2 0.2
08/04:00am 16.8 17.7 16.5 98 0.2 ENE 7 11 4 6 1015.3 1010.9 0.2
08/03:30am 16.8 17.7 16.5 98 0.2 ENE 7 13 4 7 1015.2 1010.8 0.2
08/03:00am 16.7 17.6 16.5 99 0.1 ENE 7 15 4 8 1015.4 1011.0 0.2
08/02:30am 16.8 18.2 16.3 97 0.3 ENE 4 11 2 6 1016.0 1011.5 0.2
08/02:00am 16.8 18.2 16.3 97 0.3 ENE 4 7 2 4 1016.2 1011.7 0.2
08/01:30am 16.8 17.8 16.3 97 0.3 ENE 6 11 3 6 1016.7 1012.3 0.2
08/01:00am 16.8 17.7 16.1 96 0.4 ENE 6 9 3 5 1017.2 1012.7 0.2
08/12:30am 16.8 17.5 16.1 96 0.4 E 7 13 4 7 1017.4 1013.0 0.2
08/12:00am 16.8 17.8 16.3 97 0.3 E 6 15 3 8 1017.7 1013.3 0.2
 
Date/Time
EST
Temp
°C
App
Temp
°C
Dew
Point
°C
Rel
Hum
%
Delta-T
°C
Wind Press
QNH
hPa
Press
MSL
hPa
Rain since
9am
mm
Dir  Spd
km/h
Gust
km/h
Spd
kts
Gust
kts
07/11:30pm 17.0 18.0 16.4 96 0.4 E 6 13 3 7 1017.9 1013.5 0.2
07/11:00pm 17.2 18.1 16.6 96 0.4 E 7 15 4 8 1018.1 1013.7 0.2
07/10:30pm 17.2 18.1 16.7 97 0.3 ENE 7 15 4 8 1018.5 1014.1 0.0
07/10:00pm 17.3 17.9 16.8 97 0.3 E 9 19 5 10 1018.5 1014.1 0.0
07/09:30pm 17.4 18.4 16.9 97 0.3 ESE 7 15 4 8 1018.9 1014.5 0.0
07/09:00pm 17.8 19.0 17.3 97 0.3 ESE 7 13 4 7 1018.9 1014.5 0.0
07/08:30pm 18.3 19.3 17.7 96 0.4 E 9 20 5 11 1018.2 1013.8 0.0
07/08:00pm 18.7 19.8 17.9 95 0.5 ENE 9 17 5 9 1018.5 1014.1 0.0
07/07:30pm 19.3 21.1 18.7 96 0.4 E 7 19 4 10 1018.3 1014.0 0.0
07/07:00pm 20.4 22.6 19.5 95 0.6 E 7 19 4 10 1017.7 1013.3 0.0
07/06:30pm 23.8 26.6 18.9 74 3.2 S 2 13 1 7 1017.3 1012.9 0.0
07/06:00pm 24.5 27.0 18.2 68 4.1 WSW 2 6 1 3 1016.7 1012.3 0.0
07/05:30pm 24.6 26.8 18.3 68 4.1 WSW 4 9 2 5 1016.2 1011.7 0.0
07/05:00pm 25.6 27.3 18.6 65 4.6 SW 7 13 4 7 1015.8 1011.4 0.0
07/04:30pm 25.7 27.6 18.9 66 4.5 WSW 7 17 4 9 1015.8 1011.4 0.0
07/04:00pm 25.5 27.1 19.2 68 4.2 SW 9 15 5 8 1016.1 1011.6 0.0
07/03:30pm 24.3 26.5 19.6 75 3.1 WSW 7 13 4 7 1016.1 1011.6 0.0
07/03:00pm 25.1 26.7 19.2 70 3.9 W 9 17 5 9 1016.1 1011.6 0.0
07/02:30pm 24.8 26.8 19.2 71 3.7 W 7 13 4 7 1016.3 1011.9 0.0
07/02:00pm 25.4 27.4 19.2 68 4.1 W 7 13 4 7 1016.6 1012.2 0.0
07/01:30pm 25.8 27.1 18.5 64 4.8 W 9 17 5 9 1016.5 1012.1 0.0
07/01:00pm 26.2 27.6 18.6 63 5.0 W 9 15 5 8 1016.5 1012.1 0.0

Other Formats:

Comma delimited format used in spreadsheet applications
http://www.bom.gov.au/fwo/IDQ60801/IDQ60801.94553.axf

JavaScript Object Notation format (JSON) in row-major order
http://www.bom.gov.au/fwo/IDQ60801/IDQ60801.94553.json